createdAt,value
2023-02-23T00:01:48.251Z,13.40
2023-02-23T00:04:15.750Z,13.40
2023-02-23T00:06:43.116Z,13.40
2023-02-23T00:09:22.754Z,13.40
2023-02-23T00:11:55.176Z,13.40
2023-02-23T00:14:27.486Z,13.40
2023-02-23T00:16:59.950Z,13.40
2023-02-23T00:19:27.483Z,13.40
2023-02-23T00:21:54.962Z,13.40
2023-02-23T00:24:23.192Z,13.40
2023-02-23T00:26:51.462Z,13.40
2023-02-23T00:29:22.065Z,13.30
2023-02-23T00:31:50.906Z,13.30
2023-02-23T00:34:21.159Z,13.40
2023-02-23T00:36:55.116Z,13.40
2023-02-23T00:39:29.360Z,13.40
2023-02-23T00:42:02.800Z,13.30
2023-02-23T00:44:30.649Z,13.40
2023-02-23T00:46:58.116Z,13.40
2023-02-23T00:49:25.534Z,13.40
2023-02-23T00:51:53.573Z,13.40
2023-02-23T00:54:21.884Z,13.40
2023-02-23T00:56:49.883Z,13.30
2023-02-23T00:59:17.826Z,13.40
2023-02-23T01:01:45.548Z,13.40
2023-02-23T01:04:14.059Z,13.40
2023-02-23T01:06:42.641Z,13.40
2023-02-23T01:09:16.123Z,13.40
2023-02-23T01:11:46.663Z,13.40
2023-02-23T01:14:15.356Z,13.40
2023-02-23T01:16:42.728Z,13.40
2023-02-23T01:19:10.526Z,13.40
2023-02-23T01:21:42.064Z,13.40
2023-02-23T01:24:10.431Z,13.40
2023-02-23T01:26:44.102Z,13.40
2023-02-23T01:29:14.512Z,13.50
2023-02-23T01:31:46.403Z,13.40
2023-02-23T01:34:18.649Z,13.30
2023-02-23T01:36:46.336Z,13.30
2023-02-23T01:39:19.600Z,13.30
2023-02-23T01:41:47.077Z,13.30
2023-02-23T01:44:15.453Z,13.30
2023-02-23T01:46:45.722Z,13.30
2023-02-23T01:49:26.111Z,13.30
2023-02-23T01:52:03.037Z,13.30
2023-02-23T01:54:41.048Z,13.30
2023-02-23T01:57:13.640Z,13.30
2023-02-23T01:59:49.062Z,13.30
2023-02-23T02:02:19.253Z,13.30
2023-02-23T02:04:52.091Z,13.30
2023-02-23T02:07:26.049Z,13.30
2023-02-23T02:10:13.327Z,13.30
2023-02-23T02:12:44.243Z,13.30
2023-02-23T02:15:17.475Z,13.30
2023-02-23T02:18:23.406Z,13.30
2023-02-23T02:21:12.578Z,13.30
2023-02-23T02:24:05.344Z,13.30
2023-02-23T02:27:07.512Z,13.40
2023-02-23T02:29:57.772Z,13.40
2023-02-23T02:33:15.662Z,13.40
2023-02-23T02:36:14.277Z,13.40
2023-02-23T02:38:59.444Z,13.30
2023-02-23T02:41:55.596Z,13.30
2023-02-23T02:44:51.886Z,13.30
2023-02-23T02:47:43.107Z,13.20
2023-02-23T02:50:31.502Z,13.20
2023-02-23T02:53:09.905Z,13.20
2023-02-23T02:55:43.315Z,13.30
2023-02-23T02:58:12.557Z,13.30
2023-02-23T03:01:03.233Z,13.20
2023-02-23T03:03:58.727Z,13.30
2023-02-23T03:07:02.186Z,13.30
2023-02-23T03:10:17.630Z,13.20
2023-02-23T03:13:18.655Z,13.30
2023-02-23T03:16:30.203Z,13.30
2023-02-23T03:19:35.982Z,13.30
2023-02-23T03:22:46.622Z,13.20
2023-02-23T03:25:46.165Z,13.20
2023-02-23T03:28:48.488Z,13.20
2023-02-23T03:31:51.116Z,13.20
2023-02-23T03:34:58.937Z,13.20
2023-02-23T03:38:19.213Z,13.20
2023-02-23T03:41:07.468Z,13.20
2023-02-23T03:44:13.610Z,13.20
2023-02-23T03:47:01.177Z,13.20
2023-02-23T03:49:52.508Z,13.20
2023-02-23T03:52:45.090Z,13.20
2023-02-23T03:55:38.616Z,13.10
2023-02-23T03:58:33.124Z,13.20
2023-02-23T04:01:22.627Z,13.30
2023-02-23T04:04:10.525Z,13.30
2023-02-23T04:07:01.956Z,13.30
2023-02-23T04:09:49.144Z,13.40
2023-02-23T04:12:44.735Z,13.30
2023-02-23T04:15:23.465Z,13.40
2023-02-23T04:17:52.563Z,13.40
2023-02-23T04:20:20.395Z,13.40
2023-02-23T04:22:47.721Z,13.30
2023-02-23T04:25:17.520Z,13.20
2023-02-23T04:27:45.149Z,13.20
2023-02-23T04:30:12.815Z,13.10
2023-02-23T04:32:40.216Z,13.10
2023-02-23T04:35:07.977Z,13.10
2023-02-23T04:37:35.481Z,13.20
2023-02-23T04:40:02.849Z,13.20
2023-02-23T04:42:30.469Z,13.20
2023-02-23T04:44:58.623Z,13.20
2023-02-23T04:47:26.137Z,13.10
2023-02-23T04:49:54.299Z,13.10
2023-02-23T04:52:21.605Z,13.10
2023-02-23T04:54:48.930Z,13.10
2023-02-23T04:57:16.289Z,13.10
2023-02-23T04:59:43.804Z,13.10
2023-02-23T05:02:11.905Z,13.10
2023-02-23T05:04:39.268Z,13.10
2023-02-23T05:07:06.601Z,13.10
2023-02-23T05:09:34.946Z,13.10
2023-02-23T05:12:02.417Z,13.10
2023-02-23T05:14:30.004Z,13.10
2023-02-23T05:16:57.473Z,13.10
2023-02-23T05:19:24.913Z,13.00
2023-02-23T05:21:52.295Z,13.10
2023-02-23T05:24:20.022Z,13.10
2023-02-23T05:26:48.664Z,13.10
2023-02-23T05:29:16.423Z,13.10
2023-02-23T05:31:43.944Z,13.10
2023-02-23T05:34:11.679Z,13.10
2023-02-23T05:36:38.977Z,13.00
2023-02-23T05:39:06.401Z,13.00
2023-02-23T05:41:33.870Z,13.00
2023-02-23T05:44:01.576Z,13.00
2023-02-23T05:46:30.091Z,13.00
2023-02-23T05:49:00.797Z,13.00
2023-02-23T05:51:30.522Z,13.00
2023-02-23T05:53:58.111Z,13.00
2023-02-23T05:56:25.942Z,13.00
2023-02-23T05:58:57.922Z,13.00
2023-02-23T06:01:27.065Z,13.00
2023-02-23T06:03:54.503Z,13.00
2023-02-23T06:06:24.120Z,13.00
2023-02-23T06:08:52.684Z,13.00
2023-02-23T06:11:21.021Z,13.00
2023-02-23T06:13:49.671Z,13.00
2023-02-23T06:16:17.165Z,13.10
2023-02-23T06:18:44.578Z,13.10
2023-02-23T06:21:11.995Z,13.00
2023-02-23T06:23:39.352Z,13.10
2023-02-23T06:26:06.689Z,13.20
2023-02-23T06:28:34.416Z,13.10
2023-02-23T06:31:01.790Z,13.10
2023-02-23T06:33:29.508Z,13.10
2023-02-23T06:35:57.450Z,13.10
2023-02-23T06:38:24.788Z,13.10
2023-02-23T06:40:52.172Z,13.10
2023-02-23T06:43:20.451Z,13.10
2023-02-23T06:45:49.090Z,13.20
2023-02-23T06:48:17.400Z,13.10
2023-02-23T06:50:44.772Z,13.10
2023-02-23T06:53:12.395Z,13.10
2023-02-23T06:55:39.802Z,13.20
2023-02-23T06:58:07.985Z,13.20
2023-02-23T07:00:35.437Z,13.20
2023-02-23T07:03:02.843Z,13.10
2023-02-23T07:05:30.262Z,13.10
2023-02-23T07:07:57.522Z,13.10
2023-02-23T07:10:24.935Z,13.20
2023-02-23T07:12:54.430Z,13.20
2023-02-23T07:15:21.855Z,13.10
2023-02-23T07:17:49.412Z,13.10
2023-02-23T07:20:16.876Z,13.10
2023-02-23T07:22:44.359Z,13.10
2023-02-23T07:25:11.832Z,13.10
2023-02-23T07:27:39.400Z,13.10
2023-02-23T07:30:07.456Z,13.20
2023-02-23T07:32:34.939Z,13.20
2023-02-23T07:35:02.946Z,13.20
2023-02-23T07:37:30.390Z,13.10
2023-02-23T07:39:59.527Z,13.10
2023-02-23T07:42:28.583Z,13.20
2023-02-23T07:44:56.193Z,13.20
2023-02-23T07:47:30.818Z,13.20
2023-02-23T07:49:59.768Z,13.20
2023-02-23T07:52:27.096Z,13.20
2023-02-23T07:54:54.576Z,13.20
2023-02-23T07:57:23.986Z,13.20
2023-02-23T07:59:52.272Z,13.20
2023-02-23T08:02:19.649Z,13.30
2023-02-23T08:04:47.927Z,13.30
2023-02-23T08:07:15.529Z,13.30
2023-02-23T08:09:42.936Z,13.40
2023-02-23T08:12:10.598Z,13.50
2023-02-23T08:14:37.914Z,13.40
2023-02-23T08:17:05.355Z,13.40
2023-02-23T08:19:32.787Z,13.40
2023-02-23T08:22:00.529Z,13.40
2023-02-23T08:24:29.521Z,13.40
2023-02-23T08:27:01.344Z,13.40
2023-02-23T08:29:28.621Z,13.40
2023-02-23T08:31:56.452Z,13.50
2023-02-23T08:34:24.489Z,13.50
2023-02-23T08:36:52.987Z,13.50
2023-02-23T08:39:20.911Z,13.50
2023-02-23T08:41:48.213Z,13.50
2023-02-23T08:44:15.625Z,13.70
2023-02-23T08:46:45.231Z,13.70
2023-02-23T08:49:12.733Z,13.80
2023-02-23T08:51:41.473Z,13.80
2023-02-23T08:54:14.232Z,13.80
2023-02-23T08:56:42.277Z,13.70
2023-02-23T08:59:11.566Z,13.60
2023-02-23T09:01:39.011Z,13.50
2023-02-23T09:04:06.367Z,13.40
2023-02-23T09:06:35.295Z,13.40
2023-02-23T09:09:02.792Z,13.40
2023-02-23T09:11:30.079Z,13.40
2023-02-23T09:13:57.388Z,13.40
2023-02-23T09:16:25.077Z,13.40
2023-02-23T09:18:52.680Z,13.30
2023-02-23T09:21:22.406Z,13.30
2023-02-23T09:23:51.370Z,13.30
2023-02-23T09:26:19.977Z,13.20
2023-02-23T09:28:48.655Z,13.30
2023-02-23T09:31:21.272Z,13.20
2023-02-23T09:33:49.194Z,13.30
2023-02-23T09:36:22.757Z,13.30
2023-02-23T09:38:55.363Z,13.30
2023-02-23T09:41:25.586Z,13.40
2023-02-23T09:44:25.908Z,13.40
2023-02-23T09:47:05.505Z,13.30
2023-02-23T09:49:37.863Z,13.30
2023-02-23T09:52:11.688Z,13.30
2023-02-23T09:54:39.263Z,13.30
2023-02-23T09:57:14.533Z,13.30
2023-02-23T09:59:42.598Z,13.30
2023-02-23T10:02:21.857Z,13.30
2023-02-23T10:05:11.840Z,13.30
2023-02-23T10:07:56.428Z,13.40
2023-02-23T10:10:27.941Z,13.50
2023-02-23T10:13:13.972Z,13.40
2023-02-23T10:15:46.013Z,13.40
2023-02-23T10:18:46.469Z,13.40
2023-02-23T10:21:38.521Z,13.50
2023-02-23T10:24:29.085Z,13.40
2023-02-23T10:27:22.076Z,13.40
2023-02-23T10:29:51.582Z,13.40
2023-02-23T10:32:22.399Z,13.40
2023-02-23T10:34:54.229Z,13.30
2023-02-23T10:37:21.692Z,13.30
2023-02-23T10:39:51.737Z,13.30
2023-02-23T10:42:28.920Z,13.40
2023-02-23T10:44:57.047Z,13.40
2023-02-23T10:47:33.705Z,13.40
2023-02-23T10:50:02.124Z,13.40
2023-02-23T10:52:45.475Z,13.50
2023-02-23T10:55:26.361Z,13.50
2023-02-23T10:58:10.523Z,13.50
2023-02-23T11:00:41.176Z,13.50
2023-02-23T11:04:05.478Z,13.50
2023-02-23T11:06:39.654Z,13.50
2023-02-23T11:09:43.197Z,13.50
2023-02-23T11:12:21.901Z,13.50
2023-02-23T11:14:55.796Z,13.60
2023-02-23T11:17:28.624Z,13.60
2023-02-23T11:20:21.098Z,13.50
2023-02-23T11:22:48.613Z,13.50
2023-02-23T11:25:27.492Z,13.50
2023-02-23T11:27:57.136Z,13.50
2023-02-23T11:30:42.953Z,13.50
2023-02-23T11:33:21.514Z,13.60
2023-02-23T11:35:48.898Z,13.50
2023-02-23T11:38:24.475Z,13.60
2023-02-23T11:41:03.157Z,13.60
2023-02-23T11:43:30.709Z,13.60
2023-02-23T11:46:00.768Z,13.60
2023-02-23T11:48:49.932Z,13.70
2023-02-23T11:51:54.443Z,13.70
2023-02-23T11:54:30.824Z,13.80
2023-02-23T11:56:58.659Z,13.80
2023-02-23T11:59:32.606Z,13.80
2023-02-23T12:02:19.141Z,13.80
2023-02-23T12:04:49.639Z,13.80
2023-02-23T12:07:46.356Z,13.80
2023-02-23T12:10:27.726Z,13.80
2023-02-23T12:13:22.101Z,14.00
2023-02-23T12:15:56.885Z,14.00
2023-02-23T12:18:30.030Z,14.00
2023-02-23T12:21:08.252Z,14.10
2023-02-23T12:23:38.007Z,14.20
2023-02-23T12:26:11.852Z,14.20
2023-02-23T12:28:47.567Z,14.20
2023-02-23T12:31:34.090Z,14.20
2023-02-23T12:34:18.242Z,14.20
2023-02-23T12:36:52.888Z,14.20
2023-02-23T12:39:30.950Z,14.20
2023-02-23T12:42:08.026Z,14.20
2023-02-23T12:44:54.491Z,14.20
2023-02-23T12:47:34.082Z,14.20
2023-02-23T12:50:24.510Z,14.30
2023-02-23T12:52:54.377Z,14.30
2023-02-23T12:55:45.212Z,14.30
2023-02-23T12:58:29.163Z,14.40
2023-02-23T13:00:59.566Z,14.30
2023-02-23T13:03:55.178Z,14.40
2023-02-23T13:06:51.621Z,14.40
2023-02-23T13:09:51.769Z,14.30
2023-02-23T13:12:56.568Z,14.20
2023-02-23T13:15:42.734Z,14.20
2023-02-23T13:18:20.192Z,14.20
2023-02-23T13:21:03.786Z,14.10
2023-02-23T13:23:43.301Z,14.20
2023-02-23T13:26:24.769Z,14.20
2023-02-23T13:28:59.215Z,14.20
2023-02-23T13:31:38.651Z,14.20
2023-02-23T13:34:28.050Z,14.20
2023-02-23T13:36:56.447Z,14.20
2023-02-23T13:39:45.175Z,14.20
2023-02-23T13:42:56.603Z,14.10
2023-02-23T13:46:05.698Z,14.00
2023-02-23T13:48:56.057Z,14.00
2023-02-23T13:51:44.101Z,14.00
2023-02-23T13:54:14.783Z,14.00
2023-02-23T13:56:50.945Z,14.10
2023-02-23T13:59:30.490Z,14.10
2023-02-23T14:02:02.379Z,14.10
2023-02-23T14:04:36.544Z,14.00
2023-02-23T14:07:09.599Z,13.90
2023-02-23T14:09:53.560Z,14.00
2023-02-23T14:13:03.173Z,14.00
2023-02-23T14:15:37.911Z,13.90
2023-02-23T14:18:30.173Z,13.90
2023-02-23T14:21:18.635Z,13.90
2023-02-23T14:24:03.285Z,14.00
2023-02-23T14:26:30.591Z,13.90
2023-02-23T14:29:28.183Z,13.90
2023-02-23T14:32:10.979Z,14.00
2023-02-23T14:34:59.678Z,14.00
2023-02-23T14:37:35.080Z,14.00
2023-02-23T14:40:13.757Z,13.90
2023-02-23T14:42:41.696Z,13.90
2023-02-23T14:45:28.813Z,13.90
2023-02-23T14:48:10.059Z,13.90
2023-02-23T14:50:39.219Z,13.90
2023-02-23T14:53:13.931Z,13.90
2023-02-23T14:55:43.471Z,13.90
2023-02-23T14:58:26.757Z,13.80
2023-02-23T15:00:54.561Z,13.80
2023-02-23T15:03:22.589Z,13.90
2023-02-23T15:06:02.208Z,13.80
2023-02-23T15:08:31.712Z,13.80
2023-02-23T15:11:11.304Z,13.90
2023-02-23T15:13:43.332Z,13.80
2023-02-23T15:16:24.017Z,13.80
2023-02-23T15:18:51.819Z,13.80
2023-02-23T15:21:23.762Z,13.90
2023-02-23T15:23:58.336Z,13.80
2023-02-23T15:26:33.617Z,13.80
2023-02-23T15:29:15.873Z,13.80
2023-02-23T15:31:52.388Z,13.80
2023-02-23T15:34:23.192Z,13.80
2023-02-23T15:36:59.861Z,13.80
2023-02-23T15:39:56.975Z,13.70
2023-02-23T15:42:37.289Z,13.80
2023-02-23T15:45:17.295Z,13.70
2023-02-23T15:47:44.723Z,13.70
2023-02-23T15:50:36.017Z,13.70
2023-02-23T15:53:20.361Z,13.70
2023-02-23T15:55:48.469Z,13.60
2023-02-23T15:58:26.641Z,13.60
2023-02-23T16:00:59.993Z,13.60
2023-02-23T16:03:36.211Z,13.60
2023-02-23T16:06:21.055Z,13.60
2023-02-23T16:09:23.988Z,13.60
2023-02-23T16:12:02.181Z,13.60
2023-02-23T16:14:54.059Z,13.60
2023-02-23T16:17:27.299Z,13.50
2023-02-23T16:20:15.345Z,13.50
2023-02-23T16:22:53.562Z,13.50
2023-02-23T16:25:24.566Z,13.50
2023-02-23T16:28:08.265Z,13.50
2023-02-23T16:30:43.237Z,13.50
2023-02-23T16:33:22.383Z,13.40
2023-02-23T16:36:12.561Z,13.50
2023-02-23T16:38:41.138Z,13.40
2023-02-23T16:41:18.464Z,13.40
2023-02-23T16:43:52.141Z,13.40
2023-02-23T16:46:23.119Z,13.40
2023-02-23T16:48:50.782Z,13.40
2023-02-23T16:51:20.689Z,13.40
2023-02-23T16:53:48.087Z,13.40
2023-02-23T16:56:20.403Z,13.40
2023-02-23T16:58:57.877Z,13.30
2023-02-23T17:01:25.195Z,13.30
2023-02-23T17:03:54.525Z,13.30
2023-02-23T17:06:22.855Z,13.30
2023-02-23T17:08:58.072Z,13.30
2023-02-23T17:11:26.531Z,13.30
2023-02-23T17:13:53.855Z,13.30
2023-02-23T17:16:21.615Z,13.30
2023-02-23T17:18:49.116Z,13.30
2023-02-23T17:21:23.005Z,13.20
2023-02-23T17:23:51.776Z,13.30
2023-02-23T17:26:22.283Z,13.30
2023-02-23T17:28:50.101Z,13.30
2023-02-23T17:31:19.924Z,13.30
2023-02-23T17:33:47.725Z,13.20
2023-02-23T17:36:17.147Z,13.20
2023-02-23T17:38:45.037Z,13.20
2023-02-23T17:41:18.575Z,13.30
2023-02-23T17:43:46.403Z,13.20
2023-02-23T17:46:14.040Z,13.20
2023-02-23T17:48:44.759Z,13.20
2023-02-23T17:51:13.316Z,13.20
2023-02-23T17:53:40.835Z,13.20
2023-02-23T17:56:09.420Z,13.20
2023-02-23T17:58:38.479Z,13.20
2023-02-23T18:01:07.241Z,13.30
2023-02-23T18:03:36.944Z,13.30
2023-02-23T18:06:06.906Z,13.40
2023-02-23T18:08:35.039Z,13.40
2023-02-23T18:11:03.266Z,13.40
2023-02-23T18:13:33.293Z,13.40
2023-02-23T18:16:04.211Z,13.50
2023-02-23T18:18:32.163Z,13.50
2023-02-23T18:21:00.490Z,13.50
2023-02-23T18:23:30.544Z,13.50
2023-02-23T18:26:08.086Z,13.40
2023-02-23T18:28:35.870Z,13.40
2023-02-23T18:31:03.914Z,13.40
2023-02-23T18:33:31.585Z,13.40
2023-02-23T18:35:59.034Z,13.40
2023-02-23T18:38:26.409Z,13.40
2023-02-23T18:40:53.776Z,13.50
2023-02-23T18:43:21.142Z,13.50
2023-02-23T18:45:48.512Z,13.40
2023-02-23T18:48:15.981Z,13.40
2023-02-23T18:50:43.343Z,13.40
2023-02-23T18:53:11.011Z,13.40
2023-02-23T18:55:38.833Z,13.30
2023-02-23T18:58:06.218Z,13.30
2023-02-23T19:00:40.009Z,13.30
2023-02-23T19:03:07.677Z,13.30
2023-02-23T19:05:36.177Z,13.40
2023-02-23T19:08:13.539Z,13.40
2023-02-23T19:10:41.286Z,13.40
2023-02-23T19:13:09.355Z,13.40
2023-02-23T19:15:36.972Z,13.30
2023-02-23T19:18:04.611Z,13.30
2023-02-23T19:20:35.908Z,13.20
2023-02-23T19:23:04.005Z,13.20
2023-02-23T19:25:32.632Z,13.20
2023-02-23T19:28:00.010Z,13.20
2023-02-23T19:30:27.487Z,13.20
2023-02-23T19:32:55.112Z,13.20
2023-02-23T19:35:23.666Z,13.10
2023-02-23T19:37:52.940Z,13.10
2023-02-23T19:40:22.864Z,13.20
2023-02-23T19:42:52.763Z,13.10
2023-02-23T19:45:21.851Z,13.20
2023-02-23T19:47:52.538Z,13.10
2023-02-23T19:50:20.377Z,13.10
2023-02-23T19:52:48.294Z,13.10
2023-02-23T19:55:16.158Z,13.10
2023-02-23T19:57:43.653Z,13.10
2023-02-23T20:00:12.199Z,13.10
2023-02-23T20:02:44.254Z,13.10
2023-02-23T20:05:12.944Z,13.10
2023-02-23T20:07:40.920Z,13.10
2023-02-23T20:10:13.967Z,13.10
2023-02-23T20:12:41.355Z,13.10
2023-02-23T20:15:09.765Z,13.10
2023-02-23T20:17:37.191Z,13.10
2023-02-23T20:20:06.294Z,13.10
2023-02-23T20:22:36.361Z,13.10
2023-02-23T20:25:05.977Z,13.10
2023-02-23T20:27:35.669Z,13.00
2023-02-23T20:30:04.356Z,13.00
2023-02-23T20:32:31.997Z,13.00
2023-02-23T20:35:02.561Z,13.00
2023-02-23T20:37:30.073Z,13.00
2023-02-23T20:39:57.433Z,13.00
2023-02-23T20:42:28.172Z,13.00
2023-02-23T20:44:56.230Z,13.00
2023-02-23T20:47:24.189Z,13.00
2023-02-23T20:49:52.285Z,13.00
2023-02-23T20:52:19.967Z,13.00
2023-02-23T20:54:47.321Z,13.00
2023-02-23T20:57:14.683Z,13.00
2023-02-23T20:59:43.191Z,13.00
2023-02-23T21:02:13.985Z,13.00
2023-02-23T21:04:44.298Z,13.00
2023-02-23T21:07:13.559Z,13.00
2023-02-23T21:09:41.230Z,13.00
2023-02-23T21:12:10.597Z,13.00
2023-02-23T21:14:38.241Z,13.00
2023-02-23T21:17:06.445Z,13.00
2023-02-23T21:19:34.022Z,13.00
2023-02-23T21:22:01.707Z,13.00
2023-02-23T21:24:33.771Z,13.00
2023-02-23T21:27:05.329Z,13.00
2023-02-23T21:29:33.479Z,13.00
2023-02-23T21:32:00.861Z,13.00
2023-02-23T21:34:28.255Z,13.00
2023-02-23T21:36:59.205Z,13.00
2023-02-23T21:39:28.110Z,13.00
2023-02-23T21:41:58.822Z,13.00
2023-02-23T21:44:26.477Z,13.00
2023-02-23T21:46:53.770Z,13.00
2023-02-23T21:49:21.108Z,13.00
2023-02-23T21:51:48.444Z,13.00
2023-02-23T21:54:15.808Z,12.90
2023-02-23T21:56:43.083Z,12.90
2023-02-23T21:59:10.837Z,12.90
2023-02-23T22:01:39.940Z,12.90
2023-02-23T22:04:11.088Z,12.90
2023-02-23T22:06:43.096Z,12.90
2023-02-23T22:09:11.865Z,12.90
2023-02-23T22:11:43.164Z,12.90
2023-02-23T22:14:11.357Z,12.90
2023-02-23T22:16:41.865Z,12.90
2023-02-23T22:19:09.319Z,12.90
2023-02-23T22:21:39.359Z,12.90
2023-02-23T22:24:07.801Z,12.90
2023-02-23T22:26:37.415Z,12.80
2023-02-23T22:29:06.129Z,12.80
2023-02-23T22:31:34.053Z,12.80
2023-02-23T22:34:01.616Z,12.80
2023-02-23T22:36:29.371Z,12.90
2023-02-23T22:39:00.290Z,12.90
2023-02-23T22:41:30.813Z,12.80
2023-02-23T22:43:58.373Z,12.80
2023-02-23T22:46:26.191Z,12.80
2023-02-23T22:48:53.676Z,12.80
2023-02-23T22:51:21.482Z,12.80
2023-02-23T22:53:48.997Z,12.70
2023-02-23T22:56:17.636Z,12.60
2023-02-23T22:58:45.006Z,12.60
2023-02-23T23:01:13.657Z,12.60
2023-02-23T23:03:45.927Z,12.60
2023-02-23T23:06:22.438Z,12.60
2023-02-23T23:08:52.457Z,12.60
2023-02-23T23:11:22.706Z,12.60
2023-02-23T23:14:01.621Z,12.50
2023-02-23T23:16:32.625Z,12.50
2023-02-23T23:19:07.791Z,12.50
2023-02-23T23:21:35.859Z,12.50
2023-02-23T23:24:05.919Z,12.50
2023-02-23T23:26:35.843Z,12.50
2023-02-23T23:29:07.477Z,12.50
2023-02-23T23:31:35.759Z,12.50
2023-02-23T23:34:10.147Z,12.50
2023-02-23T23:36:43.055Z,12.50
2023-02-23T23:39:16.316Z,12.50
2023-02-23T23:41:47.863Z,12.50
2023-02-23T23:44:24.139Z,12.50
2023-02-23T23:46:52.820Z,12.50
2023-02-23T23:49:27.276Z,12.50
2023-02-23T23:51:56.515Z,12.50
2023-02-23T23:54:27.479Z,12.50
2023-02-23T23:56:54.942Z,12.50
2023-02-23T23:59:24.025Z,12.50
